sensor_id;sensor_type;location;lat;lon;timestamp;P1;durP1;ratioP1;P2;durP2;ratioP2
2712;SDS011;1366;47.988;7.856;2023-07-08T00:02:08;959.93;;;897.03;;
2712;SDS011;1366;47.988;7.856;2023-07-08T00:04:35;968.03;;;904.73;;
2712;SDS011;1366;47.988;7.856;2023-07-08T00:07:01;967.37;;;904.37;;
2712;SDS011;1366;47.988;7.856;2023-07-08T00:09:28;964.70;;;901.50;;
2712;SDS011;1366;47.988;7.856;2023-07-08T00:11:55;946.50;;;884.20;;
2712;SDS011;1366;47.988;7.856;2023-07-08T00:14:22;1257.27;;;999.90;;
2712;SDS011;1366;47.988;7.856;2023-07-08T00:16:48;971.97;;;908.87;;
2712;SDS011;1366;47.988;7.856;2023-07-08T00:19:17;947.47;;;884.90;;
2712;SDS011;1366;47.988;7.856;2023-07-08T00:21:47;943.23;;;880.87;;
2712;SDS011;1366;47.988;7.856;2023-07-08T00:24:13;947.40;;;884.77;;
2712;SDS011;1366;47.988;7.856;2023-07-08T00:26:39;945.37;;;882.60;;
2712;SDS011;1366;47.988;7.856;2023-07-08T00:29:08;948.93;;;886.57;;
2712;SDS011;1366;47.988;7.856;2023-07-08T00:31:35;943.73;;;881.57;;
2712;SDS011;1366;47.988;7.856;2023-07-08T00:34:01;937.53;;;875.43;;
2712;SDS011;1366;47.988;7.856;2023-07-08T00:36:28;1266.68;;;999.90;;
2712;SDS011;1366;47.988;7.856;2023-07-08T00:38:54;975.83;;;912.63;;
2712;SDS011;1366;47.988;7.856;2023-07-08T00:43:50;945.33;;;882.97;;
2712;SDS011;1366;47.988;7.856;2023-07-08T00:48:57;1174.75;;;999.90;;
2712;SDS011;1366;47.988;7.856;2023-07-08T00:51:25;957.80;;;894.70;;
2712;SDS011;1366;47.988;7.856;2023-07-08T00:53:51;952.77;;;890.10;;
2712;SDS011;1366;47.988;7.856;2023-07-08T00:56:22;954.30;;;891.47;;
2712;SDS011;1366;47.988;7.856;2023-07-08T00:58:51;1267.80;;;999.90;;
2712;SDS011;1366;47.988;7.856;2023-07-08T01:01:19;966.60;;;903.63;;
2712;SDS011;1366;47.988;7.856;2023-07-08T01:03:50;956.67;;;893.60;;
2712;SDS011;1366;47.988;7.856;2023-07-08T01:06:19;950.07;;;887.07;;
2712;SDS011;1366;47.988;7.856;2023-07-08T01:08:46;943.97;;;881.37;;
2712;SDS011;1366;47.988;7.856;2023-07-08T01:11:15;959.83;;;897.13;;
2712;SDS011;1366;47.988;7.856;2023-07-08T01:13:41;933.30;;;870.97;;
2712;SDS011;1366;47.988;7.856;2023-07-08T01:16:09;952.17;;;889.80;;
2712;SDS011;1366;47.988;7.856;2023-07-08T01:18:35;949.17;;;886.47;;
2712;SDS011;1366;47.988;7.856;2023-07-08T01:21:03;929.73;;;867.53;;
2712;SDS011;1366;47.988;7.856;2023-07-08T01:23:31;930.73;;;868.83;;
2712;SDS011;1366;47.988;7.856;2023-07-08T01:25:58;936.43;;;874.47;;
2712;SDS011;1366;47.988;7.856;2023-07-08T01:28:25;923.93;;;862.13;;
2712;SDS011;1366;47.988;7.856;2023-07-08T01:30:51;943.13;;;880.47;;
2712;SDS011;1366;47.988;7.856;2023-07-08T01:33:18;1258.57;;;999.90;;
2712;SDS011;1366;47.988;7.856;2023-07-08T01:35:46;943.93;;;881.57;;
2712;SDS011;1366;47.988;7.856;2023-07-08T01:38:14;945.33;;;882.97;;
2712;SDS011;1366;47.988;7.856;2023-07-08T01:40:49;940.47;;;878.07;;
2712;SDS011;1366;47.988;7.856;2023-07-08T01:43:15;931.93;;;869.97;;
2712;SDS011;1366;47.988;7.856;2023-07-08T01:45:41;934.90;;;872.57;;
2712;SDS011;1366;47.988;7.856;2023-07-08T01:48:09;936.57;;;874.33;;
2712;SDS011;1366;47.988;7.856;2023-07-08T01:50:37;917.77;;;856.10;;
2712;SDS011;1366;47.988;7.856;2023-07-08T01:53:06;923.80;;;861.60;;
2712;SDS011;1366;47.988;7.856;2023-07-08T01:55:34;1249.78;;;999.90;;
2712;SDS011;1366;47.988;7.856;2023-07-08T01:58:00;962.77;;;899.87;;
2712;SDS011;1366;47.988;7.856;2023-07-08T02:00:26;951.23;;;888.50;;
2712;SDS011;1366;47.988;7.856;2023-07-08T02:02:52;1052.03;;;985.85;;
2712;SDS011;1366;47.988;7.856;2023-07-08T02:05:18;943.73;;;881.03;;
2712;SDS011;1366;47.988;7.856;2023-07-08T02:07:44;924.90;;;862.97;;
2712;SDS011;1366;47.988;7.856;2023-07-08T02:10:11;940.27;;;877.80;;
2712;SDS011;1366;47.988;7.856;2023-07-08T02:12:37;937.77;;;875.30;;
2712;SDS011;1366;47.988;7.856;2023-07-08T02:15:03;922.10;;;860.17;;
2712;SDS011;1366;47.988;7.856;2023-07-08T02:17:29;934.53;;;872.33;;
2712;SDS011;1366;47.988;7.856;2023-07-08T02:19:55;935.17;;;872.80;;
2712;SDS011;1366;47.988;7.856;2023-07-08T02:22:21;919.17;;;857.40;;
2712;SDS011;1366;47.988;7.856;2023-07-08T02:24:48;935.93;;;873.93;;
2712;SDS011;1366;47.988;7.856;2023-07-08T02:27:14;923.27;;;861.27;;
2712;SDS011;1366;47.988;7.856;2023-07-08T02:29:41;915.27;;;853.57;;
2712;SDS011;1366;47.988;7.856;2023-07-08T02:32:08;921.10;;;859.13;;
2712;SDS011;1366;47.988;7.856;2023-07-08T02:34:37;926.17;;;864.10;;
2712;SDS011;1366;47.988;7.856;2023-07-08T02:37:03;925.30;;;863.80;;
2712;SDS011;1366;47.988;7.856;2023-07-08T02:39:29;906.47;;;845.17;;
2712;SDS011;1366;47.988;7.856;2023-07-08T02:41:56;924.33;;;862.63;;
2712;SDS011;1366;47.988;7.856;2023-07-08T02:44:22;914.40;;;852.83;;
2712;SDS011;1366;47.988;7.856;2023-07-08T02:46:48;1107.40;;;999.90;;
2712;SDS011;1366;47.988;7.856;2023-07-08T02:49:14;947.77;;;885.27;;
2712;SDS011;1366;47.988;7.856;2023-07-08T02:51:40;913.13;;;851.77;;
2712;SDS011;1366;47.988;7.856;2023-07-08T02:54:06;925.73;;;863.37;;
2712;SDS011;1366;47.988;7.856;2023-07-08T02:56:32;920.07;;;858.27;;
2712;SDS011;1366;47.988;7.856;2023-07-08T02:58:58;931.43;;;869.53;;
2712;SDS011;1366;47.988;7.856;2023-07-08T03:01:24;915.60;;;854.60;;
2712;SDS011;1366;47.988;7.856;2023-07-08T03:03:51;904.00;;;843.37;;
2712;SDS011;1366;47.988;7.856;2023-07-08T03:06:22;912.43;;;851.33;;
2712;SDS011;1366;47.988;7.856;2023-07-08T03:08:48;1209.15;;;999.90;;
2712;SDS011;1366;47.988;7.856;2023-07-08T03:11:14;954.70;;;892.37;;
2712;SDS011;1366;47.988;7.856;2023-07-08T03:13:40;927.00;;;865.50;;
2712;SDS011;1366;47.988;7.856;2023-07-08T03:16:06;931.53;;;869.53;;
2712;SDS011;1366;47.988;7.856;2023-07-08T03:18:37;924.70;;;862.93;;
2712;SDS011;1366;47.988;7.856;2023-07-08T03:21:11;962.92;;;900.22;;
2712;SDS011;1366;47.988;7.856;2023-07-08T03:23:37;919.40;;;858.03;;
2712;SDS011;1366;47.988;7.856;2023-07-08T03:26:03;918.17;;;857.10;;
2712;SDS011;1366;47.988;7.856;2023-07-08T03:28:29;924.50;;;863.37;;
2712;SDS011;1366;47.988;7.856;2023-07-08T03:30:56;1230.72;;;999.90;;
2712;SDS011;1366;47.988;7.856;2023-07-08T03:33:22;931.90;;;870.50;;
2712;SDS011;1366;47.988;7.856;2023-07-08T03:35:49;924.77;;;863.30;;
2712;SDS011;1366;47.988;7.856;2023-07-08T03:38:15;945.20;;;882.70;;
2712;SDS011;1366;47.988;7.856;2023-07-08T03:40:41;939.37;;;877.27;;
2712;SDS011;1366;47.988;7.856;2023-07-08T03:43:09;1010.58;;;946.40;;
2712;SDS011;1366;47.988;7.856;2023-07-08T03:45:35;931.07;;;869.20;;
2712;SDS011;1366;47.988;7.856;2023-07-08T03:48:01;937.07;;;875.17;;
2712;SDS011;1366;47.988;7.856;2023-07-08T03:50:27;920.43;;;859.37;;
2712;SDS011;1366;47.988;7.856;2023-07-08T03:52:54;1257.07;;;999.90;;
2712;SDS011;1366;47.988;7.856;2023-07-08T03:55:20;949.20;;;887.23;;
2712;SDS011;1366;47.988;7.856;2023-07-08T03:57:46;935.57;;;874.07;;
2712;SDS011;1366;47.988;7.856;2023-07-08T04:00:13;928.03;;;866.73;;
2712;SDS011;1366;47.988;7.856;2023-07-08T04:02:39;919.23;;;858.23;;
2712;SDS011;1366;47.988;7.856;2023-07-08T04:05:05;930.93;;;869.53;;
2712;SDS011;1366;47.988;7.856;2023-07-08T04:07:32;923.47;;;862.20;;
2712;SDS011;1366;47.988;7.856;2023-07-08T04:09:58;895.60;;;834.33;;
2712;SDS011;1366;47.988;7.856;2023-07-08T04:12:24;894.83;;;834.33;;
2712;SDS011;1366;47.988;7.856;2023-07-08T04:14:50;1249.15;;;999.90;;
2712;SDS011;1366;47.988;7.856;2023-07-08T04:17:17;916.00;;;855.03;;
2712;SDS011;1366;47.988;7.856;2023-07-08T04:19:44;926.93;;;865.13;;
2712;SDS011;1366;47.988;7.856;2023-07-08T04:22:10;903.67;;;842.67;;
2712;SDS011;1366;47.988;7.856;2023-07-08T04:24:36;871.77;;;811.53;;
2712;SDS011;1366;47.988;7.856;2023-07-08T04:27:02;1055.93;;;989.97;;
2712;SDS011;1366;47.988;7.856;2023-07-08T04:29:29;878.70;;;818.73;;
2712;SDS011;1366;47.988;7.856;2023-07-08T04:31:55;870.97;;;811.07;;
2712;SDS011;1366;47.988;7.856;2023-07-08T04:34:21;876.70;;;816.70;;
2712;SDS011;1366;47.988;7.856;2023-07-08T04:36:47;1224.68;;;999.90;;
2712;SDS011;1366;47.988;7.856;2023-07-08T04:39:13;897.47;;;837.10;;
2712;SDS011;1366;47.988;7.856;2023-07-08T04:41:40;841.17;;;782.27;;
2712;SDS011;1366;47.988;7.856;2023-07-08T04:44:09;838.33;;;779.30;;
2712;SDS011;1366;47.988;7.856;2023-07-08T04:49:02;1081.25;;;998.95;;
2712;SDS011;1366;47.988;7.856;2023-07-08T04:51:28;873.17;;;813.33;;
2712;SDS011;1366;47.988;7.856;2023-07-08T04:53:55;844.93;;;785.40;;
2712;SDS011;1366;47.988;7.856;2023-07-08T04:56:37;833.07;;;774.30;;
2712;SDS011;1366;47.988;7.856;2023-07-08T04:59:04;847.93;;;788.53;;
2712;SDS011;1366;47.988;7.856;2023-07-08T05:01:31;838.80;;;780.13;;
2712;SDS011;1366;47.988;7.856;2023-07-08T05:03:57;855.13;;;795.47;;
2712;SDS011;1366;47.988;7.856;2023-07-08T05:06:23;843.87;;;784.70;;
2712;SDS011;1366;47.988;7.856;2023-07-08T05:08:49;852.80;;;793.00;;
2712;SDS011;1366;47.988;7.856;2023-07-08T05:11:15;1196.55;;;999.90;;
2712;SDS011;1366;47.988;7.856;2023-07-08T05:13:41;869.97;;;809.97;;
2712;SDS011;1366;47.988;7.856;2023-07-08T05:16:07;847.63;;;788.07;;
2712;SDS011;1366;47.988;7.856;2023-07-08T05:18:33;827.40;;;768.63;;
2712;SDS011;1366;47.988;7.856;2023-07-08T05:20:59;836.90;;;777.83;;
2712;SDS011;1366;47.988;7.856;2023-07-08T05:23:26;800.83;;;742.73;;
2712;SDS011;1366;47.988;7.856;2023-07-08T05:25:52;786.90;;;729.07;;
2712;SDS011;1366;47.988;7.856;2023-07-08T05:28:19;821.00;;;761.93;;
2712;SDS011;1366;47.988;7.856;2023-07-08T05:30:46;779.57;;;721.73;;
2712;SDS011;1366;47.988;7.856;2023-07-08T05:33:12;1200.13;;;999.90;;
2712;SDS011;1366;47.988;7.856;2023-07-08T05:35:38;824.97;;;765.97;;
2712;SDS011;1366;47.988;7.856;2023-07-08T05:38:05;786.83;;;729.20;;
2712;SDS011;1366;47.988;7.856;2023-07-08T05:40:31;894.87;;;833.97;;
2712;SDS011;1366;47.988;7.856;2023-07-08T05:42:57;834.20;;;775.40;;
2712;SDS011;1366;47.988;7.856;2023-07-08T05:45:23;810.33;;;752.13;;
2712;SDS011;1366;47.988;7.856;2023-07-08T05:47:49;802.73;;;744.83;;
2712;SDS011;1366;47.988;7.856;2023-07-08T05:50:15;824.33;;;765.80;;
2712;SDS011;1366;47.988;7.856;2023-07-08T05:52:41;824.40;;;765.57;;
2712;SDS011;1366;47.988;7.856;2023-07-08T05:55:07;790.33;;;732.37;;
2712;SDS011;1366;47.988;7.856;2023-07-08T05:57:33;824.47;;;765.93;;
2712;SDS011;1366;47.988;7.856;2023-07-08T05:59:59;796.53;;;738.63;;
2712;SDS011;1366;47.988;7.856;2023-07-08T06:02:25;932.72;;;870.97;;
2712;SDS011;1366;47.988;7.856;2023-07-08T06:04:51;853.87;;;794.67;;
2712;SDS011;1366;47.988;7.856;2023-07-08T06:07:18;860.57;;;801.00;;
2712;SDS011;1366;47.988;7.856;2023-07-08T06:09:44;837.37;;;778.20;;
2712;SDS011;1366;47.988;7.856;2023-07-08T06:12:10;815.13;;;756.53;;
2712;SDS011;1366;47.988;7.856;2023-07-08T06:14:37;839.47;;;780.50;;
2712;SDS011;1366;47.988;7.856;2023-07-08T06:17:03;1185.38;;;999.90;;
2712;SDS011;1366;47.988;7.856;2023-07-08T06:19:30;847.80;;;788.90;;
2712;SDS011;1366;47.988;7.856;2023-07-08T06:21:56;832.97;;;774.17;;
2712;SDS011;1366;47.988;7.856;2023-07-08T06:24:23;946.72;;;884.50;;
2712;SDS011;1366;47.988;7.856;2023-07-08T06:26:49;872.57;;;812.63;;
2712;SDS011;1366;47.988;7.856;2023-07-08T06:29:15;854.17;;;794.80;;
2712;SDS011;1366;47.988;7.856;2023-07-08T06:31:41;849.73;;;790.10;;
2712;SDS011;1366;47.988;7.856;2023-07-08T06:34:07;822.23;;;763.73;;
2712;SDS011;1366;47.988;7.856;2023-07-08T06:36:33;843.23;;;784.27;;
2712;SDS011;1366;47.988;7.856;2023-07-08T06:39:00;1219.17;;;999.90;;
2712;SDS011;1366;47.988;7.856;2023-07-08T06:41:26;888.90;;;828.70;;
2712;SDS011;1366;47.988;7.856;2023-07-08T06:43:52;874.10;;;814.30;;
2712;SDS011;1366;47.988;7.856;2023-07-08T06:46:18;993.85;;;930.35;;
2712;SDS011;1366;47.988;7.856;2023-07-08T06:48:45;861.23;;;801.43;;
2712;SDS011;1366;47.988;7.856;2023-07-08T06:51:11;862.73;;;803.47;;
2712;SDS011;1366;47.988;7.856;2023-07-08T06:53:37;880.03;;;820.17;;
2712;SDS011;1366;47.988;7.856;2023-07-08T06:56:03;852.90;;;793.43;;
2712;SDS011;1366;47.988;7.856;2023-07-08T06:58:29;879.50;;;819.47;;
2712;SDS011;1366;47.988;7.856;2023-07-08T07:00:55;860.70;;;801.33;;
2712;SDS011;1366;47.988;7.856;2023-07-08T07:03:21;886.57;;;826.60;;
2712;SDS011;1366;47.988;7.856;2023-07-08T07:05:47;879.50;;;819.50;;
2712;SDS011;1366;47.988;7.856;2023-07-08T07:08:13;992.10;;;928.42;;
2712;SDS011;1366;47.988;7.856;2023-07-08T07:10:39;883.10;;;823.23;;
2712;SDS011;1366;47.988;7.856;2023-07-08T07:13:06;884.33;;;824.27;;
2712;SDS011;1366;47.988;7.856;2023-07-08T07:15:32;844.93;;;786.03;;
2712;SDS011;1366;47.988;7.856;2023-07-08T07:18:01;881.33;;;821.60;;
2712;SDS011;1366;47.988;7.856;2023-07-08T07:20:27;884.57;;;824.37;;
2712;SDS011;1366;47.988;7.856;2023-07-08T07:22:54;1232.63;;;999.90;;
2712;SDS011;1366;47.988;7.856;2023-07-08T07:25:20;916.73;;;855.57;;
2712;SDS011;1366;47.988;7.856;2023-07-08T07:27:46;882.40;;;822.27;;
2712;SDS011;1366;47.988;7.856;2023-07-08T07:30:12;1025.45;;;960.70;;
2712;SDS011;1366;47.988;7.856;2023-07-08T07:32:40;903.70;;;843.43;;
2712;SDS011;1366;47.988;7.856;2023-07-08T07:35:06;888.63;;;828.53;;
2712;SDS011;1366;47.988;7.856;2023-07-08T07:37:33;904.53;;;844.27;;
2712;SDS011;1366;47.988;7.856;2023-07-08T07:39:59;908.93;;;848.13;;
2712;SDS011;1366;47.988;7.856;2023-07-08T07:42:26;909.87;;;849.27;;
2712;SDS011;1366;47.988;7.856;2023-07-08T07:44:52;1232.95;;;999.90;;
2712;SDS011;1366;47.988;7.856;2023-07-08T07:47:19;946.23;;;884.27;;
2712;SDS011;1366;47.988;7.856;2023-07-08T07:49:45;935.17;;;873.47;;
2712;SDS011;1366;47.988;7.856;2023-07-08T07:52:11;1050.30;;;984.80;;
2712;SDS011;1366;47.988;7.856;2023-07-08T07:54:40;925.87;;;864.57;;
2712;SDS011;1366;47.988;7.856;2023-07-08T07:57:06;937.10;;;875.33;;
2712;SDS011;1366;47.988;7.856;2023-07-08T07:59:32;921.27;;;860.47;;
2712;SDS011;1366;47.988;7.856;2023-07-08T08:01:58;921.77;;;860.60;;
2712;SDS011;1366;47.988;7.856;2023-07-08T08:04:24;930.27;;;868.80;;
2712;SDS011;1366;47.988;7.856;2023-07-08T08:06:50;1243.50;;;999.90;;
2712;SDS011;1366;47.988;7.856;2023-07-08T08:09:16;957.00;;;895.10;;
2712;SDS011;1366;47.988;7.856;2023-07-08T08:11:42;929.60;;;868.40;;
2712;SDS011;1366;47.988;7.856;2023-07-08T08:14:11;1101.30;;;999.90;;
2712;SDS011;1366;47.988;7.856;2023-07-08T08:16:37;949.27;;;887.30;;
2712;SDS011;1366;47.988;7.856;2023-07-08T08:19:03;918.83;;;857.87;;
2712;SDS011;1366;47.988;7.856;2023-07-08T08:21:29;931.87;;;869.87;;
2712;SDS011;1366;47.988;7.856;2023-07-08T08:23:55;944.27;;;882.70;;
2712;SDS011;1366;47.988;7.856;2023-07-08T08:26:23;938.80;;;877.17;;
2712;SDS011;1366;47.988;7.856;2023-07-08T08:28:49;1274.22;;;999.90;;
2712;SDS011;1366;47.988;7.856;2023-07-08T08:31:15;984.33;;;921.27;;
2712;SDS011;1366;47.988;7.856;2023-07-08T08:33:41;978.10;;;915.30;;
2712;SDS011;1366;47.988;7.856;2023-07-08T08:36:10;958.03;;;895.90;;
2712;SDS011;1366;47.988;7.856;2023-07-08T08:38:36;984.67;;;921.47;;
2712;SDS011;1366;47.988;7.856;2023-07-08T08:41:03;971.80;;;908.80;;
2712;SDS011;1366;47.988;7.856;2023-07-08T08:43:36;972.60;;;909.80;;
2712;SDS011;1366;47.988;7.856;2023-07-08T08:46:23;965.97;;;903.50;;
2712;SDS011;1366;47.988;7.856;2023-07-08T08:48:55;979.37;;;916.37;;
2712;SDS011;1366;47.988;7.856;2023-07-08T08:51:22;978.00;;;915.07;;
2712;SDS011;1366;47.988;7.856;2023-07-08T08:53:50;980.37;;;917.27;;
2712;SDS011;1366;47.988;7.856;2023-07-08T08:56:20;975.00;;;912.33;;
2712;SDS011;1366;47.988;7.856;2023-07-08T08:59:04;1275.80;;;999.90;;
2712;SDS011;1366;47.988;7.856;2023-07-08T09:01:36;1003.10;;;939.60;;
2712;SDS011;1366;47.988;7.856;2023-07-08T09:04:06;1017.67;;;953.37;;
2712;SDS011;1366;47.988;7.856;2023-07-08T09:06:34;1006.13;;;942.00;;
2712;SDS011;1366;47.988;7.856;2023-07-08T09:09:05;986.67;;;923.80;;
2712;SDS011;1366;47.988;7.856;2023-07-08T09:17:22;988.03;;;924.63;;
2712;SDS011;1366;47.988;7.856;2023-07-08T09:19:58;1121.82;;;999.90;;
2712;SDS011;1366;47.988;7.856;2023-07-08T09:22:41;1009.60;;;945.83;;
2712;SDS011;1366;47.988;7.856;2023-07-08T09:25:16;1008.03;;;944.30;;
2712;SDS011;1366;47.988;7.856;2023-07-08T09:27:45;984.47;;;921.70;;
2712;SDS011;1366;47.988;7.856;2023-07-08T09:30:15;976.47;;;913.87;;
2712;SDS011;1366;47.988;7.856;2023-07-08T09:32:41;1000.00;;;936.60;;
2712;SDS011;1366;47.988;7.856;2023-07-08T09:35:09;981.97;;;919.17;;
2712;SDS011;1366;47.988;7.856;2023-07-08T09:37:36;996.50;;;932.93;;
2712;SDS011;1366;47.988;7.856;2023-07-08T09:40:03;973.93;;;911.37;;
2712;SDS011;1366;47.988;7.856;2023-07-08T09:42:31;985.87;;;922.80;;
2712;SDS011;1366;47.988;7.856;2023-07-08T09:44:58;989.67;;;926.37;;
2712;SDS011;1366;47.988;7.856;2023-07-08T09:47:29;1002.97;;;939.30;;
2712;SDS011;1366;47.988;7.856;2023-07-08T09:49:58;1001.47;;;937.70;;
2712;SDS011;1366;47.988;7.856;2023-07-08T09:52:25;991.63;;;928.47;;
2712;SDS011;1366;47.988;7.856;2023-07-08T09:54:51;1152.20;;;999.90;;
2712;SDS011;1366;47.988;7.856;2023-07-08T09:57:26;1012.27;;;948.27;;
2712;SDS011;1366;47.988;7.856;2023-07-08T09:59:55;1007.93;;;944.10;;
2712;SDS011;1366;47.988;7.856;2023-07-08T10:05:09;981.80;;;918.93;;
2712;SDS011;1366;47.988;7.856;2023-07-08T10:07:36;986.03;;;922.83;;
2712;SDS011;1366;47.988;7.856;2023-07-08T10:10:04;991.17;;;928.17;;
2712;SDS011;1366;47.988;7.856;2023-07-08T10:12:31;1014.67;;;950.40;;
2712;SDS011;1366;47.988;7.856;2023-07-08T10:15:05;976.23;;;913.67;;
2712;SDS011;1366;47.988;7.856;2023-07-08T10:17:31;1296.70;;;999.90;;
2712;SDS011;1366;47.988;7.856;2023-07-08T10:19:58;1020.10;;;955.77;;
2712;SDS011;1366;47.988;7.856;2023-07-08T10:22:27;1009.87;;;945.87;;
2712;SDS011;1366;47.988;7.856;2023-07-08T10:30:19;1018.80;;;954.63;;
2712;SDS011;1366;47.988;7.856;2023-07-08T10:35:19;1006.90;;;943.20;;
2712;SDS011;1366;47.988;7.856;2023-07-08T10:40:34;1010.13;;;946.67;;
2712;SDS011;1366;47.988;7.856;2023-07-08T10:51:23;1048.67;;;983.37;;
2712;SDS011;1366;47.988;7.856;2023-07-08T10:53:56;1040.47;;;975.83;;
2712;SDS011;1366;47.988;7.856;2023-07-08T10:56:36;1015.93;;;951.87;;
2712;SDS011;1366;47.988;7.856;2023-07-08T10:59:22;1030.93;;;966.23;;
2712;SDS011;1366;47.988;7.856;2023-07-08T11:07:29;1012.27;;;948.40;;
2712;SDS011;1366;47.988;7.856;2023-07-08T11:10:00;1040.47;;;975.67;;
2712;SDS011;1366;47.988;7.856;2023-07-08T11:14:56;1022.87;;;958.67;;
2712;SDS011;1366;47.988;7.856;2023-07-08T11:19:53;1021.57;;;957.53;;
2712;SDS011;1366;47.988;7.856;2023-07-08T11:22:21;1157.80;;;999.90;;
2712;SDS011;1366;47.988;7.856;2023-07-08T11:24:48;1026.43;;;962.03;;
2712;SDS011;1366;47.988;7.856;2023-07-08T11:27:22;1046.07;;;981.07;;
2712;SDS011;1366;47.988;7.856;2023-07-08T11:29:53;1033.97;;;969.20;;
2712;SDS011;1366;47.988;7.856;2023-07-08T11:32:20;1283.23;;;999.90;;
2712;SDS011;1366;47.988;7.856;2023-07-08T11:34:48;1049.70;;;984.23;;
2712;SDS011;1366;47.988;7.856;2023-07-08T11:37:15;1047.50;;;982.33;;
2712;SDS011;1366;47.988;7.856;2023-07-08T11:39:44;1060.50;;;994.00;;
2712;SDS011;1366;47.988;7.856;2023-07-08T11:42:14;1029.13;;;964.73;;
2712;SDS011;1366;47.988;7.856;2023-07-08T11:44:46;1200.13;;;999.90;;
2712;SDS011;1366;47.988;7.856;2023-07-08T11:47:18;1046.47;;;981.27;;
2712;SDS011;1366;47.988;7.856;2023-07-08T11:49:46;1046.00;;;981.00;;
2712;SDS011;1366;47.988;7.856;2023-07-08T11:52:14;1018.30;;;954.53;;
2712;SDS011;1366;47.988;7.856;2023-07-08T11:54:45;1051.40;;;986.17;;
2712;SDS011;1366;47.988;7.856;2023-07-08T11:57:19;1042.13;;;977.47;;
2712;SDS011;1366;47.988;7.856;2023-07-08T11:59:55;1028.77;;;964.67;;
2712;SDS011;1366;47.988;7.856;2023-07-08T12:02:31;1052.13;;;986.53;;
2712;SDS011;1366;47.988;7.856;2023-07-08T12:05:13;1060.00;;;992.97;;
2712;SDS011;1366;47.988;7.856;2023-07-08T12:07:46;1029.53;;;965.17;;
2712;SDS011;1366;47.988;7.856;2023-07-08T12:10:22;1039.93;;;975.37;;
2712;SDS011;1366;47.988;7.856;2023-07-08T12:12:51;1057.57;;;992.07;;
2712;SDS011;1366;47.988;7.856;2023-07-08T12:17:43;1051.10;;;986.07;;
2712;SDS011;1366;47.988;7.856;2023-07-08T12:20:21;1057.00;;;991.30;;
2712;SDS011;1366;47.988;7.856;2023-07-08T12:22:48;1063.00;;;995.63;;
2712;SDS011;1366;47.988;7.856;2023-07-08T12:25:15;1058.73;;;993.17;;
2712;SDS011;1366;47.988;7.856;2023-07-08T12:27:43;1046.37;;;981.37;;
2712;SDS011;1366;47.988;7.856;2023-07-08T12:30:10;1066.20;;;996.57;;
2712;SDS011;1366;47.988;7.856;2023-07-08T12:32:36;1069.40;;;997.70;;
2712;SDS011;1366;47.988;7.856;2023-07-08T12:35:03;1062.30;;;995.53;;
2712;SDS011;1366;47.988;7.856;2023-07-08T12:37:30;1071.30;;;998.70;;
2712;SDS011;1366;47.988;7.856;2023-07-08T12:39:57;1085.33;;;999.90;;
2712;SDS011;1366;47.988;7.856;2023-07-08T12:42:29;1051.90;;;986.43;;
2712;SDS011;1366;47.988;7.856;2023-07-08T12:44:56;1074.57;;;999.90;;
2712;SDS011;1366;47.988;7.856;2023-07-08T12:47:22;1093.47;;;999.90;;
2712;SDS011;1366;47.988;7.856;2023-07-08T12:49:48;1079.27;;;999.90;;
2712;SDS011;1366;47.988;7.856;2023-07-08T12:52:19;1343.07;;;999.90;;
2712;SDS011;1366;47.988;7.856;2023-07-08T12:54:46;1112.10;;;999.90;;
2712;SDS011;1366;47.988;7.856;2023-07-08T12:57:12;1085.20;;;999.90;;
2712;SDS011;1366;47.988;7.856;2023-07-08T12:59:39;1108.80;;;999.90;;
2712;SDS011;1366;47.988;7.856;2023-07-08T13:02:10;1307.65;;;999.90;;
2712;SDS011;1366;47.988;7.856;2023-07-08T13:04:40;1102.07;;;999.90;;
2712;SDS011;1366;47.988;7.856;2023-07-08T13:07:08;1107.03;;;999.90;;
2712;SDS011;1366;47.988;7.856;2023-07-08T13:09:37;1089.20;;;999.90;;
2712;SDS011;1366;47.988;7.856;2023-07-08T13:12:05;1102.23;;;999.90;;
2712;SDS011;1366;47.988;7.856;2023-07-08T13:14:36;1316.25;;;999.90;;
2712;SDS011;1366;47.988;7.856;2023-07-08T13:17:08;1102.57;;;999.90;;
2712;SDS011;1366;47.988;7.856;2023-07-08T13:19:34;1113.93;;;999.90;;
2712;SDS011;1366;47.988;7.856;2023-07-08T13:22:00;1108.33;;;999.90;;
2712;SDS011;1366;47.988;7.856;2023-07-08T13:24:29;1204.90;;;999.90;;
2712;SDS011;1366;47.988;7.856;2023-07-08T13:26:55;1120.27;;;999.90;;
2712;SDS011;1366;47.988;7.856;2023-07-08T13:29:22;1115.23;;;999.90;;
2712;SDS011;1366;47.988;7.856;2023-07-08T13:31:56;1103.80;;;999.90;;
2712;SDS011;1366;47.988;7.856;2023-07-08T13:34:27;1122.13;;;999.90;;
2712;SDS011;1366;47.988;7.856;2023-07-08T13:36:53;1120.43;;;999.90;;
2712;SDS011;1366;47.988;7.856;2023-07-08T13:39:25;1120.37;;;999.90;;
2712;SDS011;1366;47.988;7.856;2023-07-08T13:41:53;1103.43;;;999.90;;
2712;SDS011;1366;47.988;7.856;2023-07-08T13:44:20;1117.27;;;999.90;;
2712;SDS011;1366;47.988;7.856;2023-07-08T13:46:53;1118.27;;;999.90;;
2712;SDS011;1366;47.988;7.856;2023-07-08T13:49:27;1358.47;;;999.90;;
2712;SDS011;1366;47.988;7.856;2023-07-08T13:54:41;1126.87;;;999.90;;
2712;SDS011;1366;47.988;7.856;2023-07-08T13:57:09;1119.57;;;999.90;;
2712;SDS011;1366;47.988;7.856;2023-07-08T13:59:36;1272.53;;;999.90;;
2712;SDS011;1366;47.988;7.856;2023-07-08T14:02:06;1134.43;;;999.90;;
2712;SDS011;1366;47.988;7.856;2023-07-08T14:04:38;1125.17;;;999.90;;
2712;SDS011;1366;47.988;7.856;2023-07-08T14:07:07;1134.83;;;999.90;;
2712;SDS011;1366;47.988;7.856;2023-07-08T14:09:34;1142.60;;;999.90;;
2712;SDS011;1366;47.988;7.856;2023-07-08T14:12:00;1353.65;;;999.90;;
2712;SDS011;1366;47.988;7.856;2023-07-08T14:14:27;1138.93;;;999.90;;
2712;SDS011;1366;47.988;7.856;2023-07-08T14:16:53;1150.53;;;999.90;;
2712;SDS011;1366;47.988;7.856;2023-07-08T14:19:21;1146.87;;;999.90;;
2712;SDS011;1366;47.988;7.856;2023-07-08T14:21:48;1122.13;;;999.90;;
2712;SDS011;1366;47.988;7.856;2023-07-08T14:24:16;1139.70;;;999.90;;
2712;SDS011;1366;47.988;7.856;2023-07-08T14:26:43;1146.97;;;999.90;;
2712;SDS011;1366;47.988;7.856;2023-07-08T14:29:10;1151.53;;;999.90;;
2712;SDS011;1366;47.988;7.856;2023-07-08T14:31:36;1127.83;;;999.90;;
2712;SDS011;1366;47.988;7.856;2023-07-08T14:34:04;1196.03;;;999.90;;
2712;SDS011;1366;47.988;7.856;2023-07-08T14:36:31;1170.67;;;999.90;;
2712;SDS011;1366;47.988;7.856;2023-07-08T14:38:57;1158.63;;;999.90;;
2712;SDS011;1366;47.988;7.856;2023-07-08T14:41:23;1176.40;;;999.90;;
2712;SDS011;1366;47.988;7.856;2023-07-08T14:43:50;1173.57;;;999.90;;
2712;SDS011;1366;47.988;7.856;2023-07-08T14:46:16;1337.57;;;999.90;;
2712;SDS011;1366;47.988;7.856;2023-07-08T14:48:42;1178.80;;;999.90;;
2712;SDS011;1366;47.988;7.856;2023-07-08T14:51:08;1192.40;;;999.90;;
2712;SDS011;1366;47.988;7.856;2023-07-08T14:53:34;1185.67;;;999.90;;
2712;SDS011;1366;47.988;7.856;2023-07-08T14:56:01;1211.53;;;999.90;;
2712;SDS011;1366;47.988;7.856;2023-07-08T14:58:30;1200.70;;;999.90;;
2712;SDS011;1366;47.988;7.856;2023-07-08T15:00:58;1203.83;;;999.90;;
2712;SDS011;1366;47.988;7.856;2023-07-08T15:03:25;1211.20;;;999.90;;
2712;SDS011;1366;47.988;7.856;2023-07-08T15:05:51;1212.80;;;999.90;;
2712;SDS011;1366;47.988;7.856;2023-07-08T15:08:17;1217.80;;;999.90;;
2712;SDS011;1366;47.988;7.856;2023-07-08T15:10:49;1220.70;;;999.90;;